Terminal Aerodrome Forecast
Issued by NWS Sioux Falls, SD

Home | Current Version | Previous Version | Graphics & Text | Print | Product List | Glossary On
Versions: 1 2 3 4 5 6 7 8 9 10 11 12 13 14 15 16
000
FTUS43 KFSD 271100
TAFFSD
TAF
KFSD 271121Z 2712/2812 29008KT P6SM SKC
     FM271400 33018G25KT P6SM SCT025
      TEMPO 2716/2718 BKN028
     FM272000 34016G22KT P6SM SCT035
     FM280100 35008KT P6SM FEW030
     FM280500 35005KT P6SM SCT025=

USA.gov is the U.S. government's official web portal to all federal, state and local government web resources and services.